Terminal Aerodrome Forecast
Issued by NWS Wilmington, OH

Current Version | Previous Version | Graphics & Text | Print | Product List | Glossary Off
Versions: 1 2 3 4 5 6 7 8 9 10 11 12 13 14 15 16 17

000
FTUS41 KILN 281137
TAFCMH
TAF
KCMH 281137Z 2812/2912 10003KT P6SM BKN027 OVC140
     FM281300 15007KT P6SM SCT027 BKN200
     FM281800 16008KT P6SM BKN170
     FM290000 11006KT P6SM VCSH BKN110
     FM290300 15008KT P6SM -SHRA VCTS OVC040CB WS020/21040KT
     FM291000 20005KT P6SM VCSH OVC025=

USA.gov is the U.S. government's official web portal to all federal, state and local government web resources and services.